createdAt,value
2018-06-24T00:01:05.203Z,6.27
2018-06-24T00:03:08.791Z,9.00
2018-06-24T00:05:14.273Z,6.00
2018-06-24T00:07:18.335Z,6.87
2018-06-24T00:09:22.840Z,9.73
2018-06-24T00:11:28.076Z,9.47
2018-06-24T00:13:32.275Z,9.50
2018-06-24T00:15:37.979Z,7.90
2018-06-24T00:17:42.430Z,6.17
2018-06-24T00:19:47.258Z,7.77
2018-06-24T00:21:52.507Z,7.57
2018-06-24T00:23:56.674Z,8.17
2018-06-24T00:26:00.693Z,7.13
2018-06-24T00:28:07.329Z,7.90
2018-06-24T00:30:15.844Z,5.70
2018-06-24T00:32:19.412Z,10.23
2018-06-24T00:34:23.630Z,7.27
2018-06-24T00:36:28.270Z,9.93
2018-06-24T00:38:32.366Z,8.77
2018-06-24T00:40:37.465Z,8.37
2018-06-24T00:42:46.249Z,6.57
2018-06-24T00:44:50.225Z,6.97
2018-06-24T00:46:54.162Z,6.77
2018-06-24T00:48:58.312Z,4.67
2018-06-24T00:51:02.325Z,8.10
2018-06-24T00:53:06.319Z,5.03
2018-06-24T00:55:10.611Z,4.83
2018-06-24T00:57:14.538Z,6.60
2018-06-24T00:59:29.432Z,10.23
2018-06-24T01:01:33.672Z,5.47
2018-06-24T01:03:37.598Z,7.70
2018-06-24T01:05:44.656Z,6.80
2018-06-24T01:07:49.902Z,8.13
2018-06-24T01:09:55.433Z,8.30
2018-06-24T01:11:59.322Z,8.27
2018-06-24T01:14:04.161Z,6.00
2018-06-24T01:16:08.111Z,6.37
2018-06-24T01:18:12.142Z,5.33
2018-06-24T01:20:22.021Z,9.40
2018-06-24T01:22:26.333Z,5.63
2018-06-24T01:24:30.436Z,7.97
2018-06-24T01:26:34.821Z,5.20
2018-06-24T01:28:40.157Z,6.97
2018-06-24T01:30:44.105Z,6.60
2018-06-24T01:32:55.511Z,6.37
2018-06-24T01:34:59.487Z,7.47
2018-06-24T01:37:04.312Z,8.73
2018-06-24T01:39:09.873Z,6.50
2018-06-24T01:41:15.203Z,8.97
2018-06-24T01:43:19.129Z,6.57
2018-06-24T01:45:23.351Z,5.97
2018-06-24T01:47:28.794Z,8.77
2018-06-24T01:49:32.739Z,8.30
2018-06-24T01:51:39.035Z,11.77
2018-06-24T01:53:44.334Z,9.50
2018-06-24T01:55:48.579Z,11.47
2018-06-24T01:57:55.219Z,8.70
2018-06-24T01:59:59.209Z,5.37
2018-06-24T02:02:03.264Z,8.13
2018-06-24T02:04:07.635Z,6.40
2018-06-24T02:06:11.539Z,6.90
2018-06-24T02:08:15.454Z,6.70
2018-06-24T02:10:20.778Z,6.90
2018-06-24T02:12:24.784Z,8.73
2018-06-24T02:14:28.805Z,7.03
2018-06-24T02:16:40.306Z,6.40
2018-06-24T02:18:44.866Z,6.30
2018-06-24T02:20:48.847Z,6.70
2018-06-24T02:22:53.135Z,7.53
2018-06-24T02:24:57.069Z,5.63
2018-06-24T02:27:01.027Z,5.97
2018-06-24T02:29:07.278Z,6.93
2018-06-24T02:31:11.210Z,6.20
2018-06-24T02:33:15.177Z,7.73
2018-06-24T02:35:19.475Z,4.67
2018-06-24T02:37:23.458Z,8.00
2018-06-24T02:39:31.599Z,6.93
2018-06-24T02:41:42.225Z,7.37
2018-06-24T02:44:14.562Z,6.13
2018-06-24T02:46:35.495Z,6.80
2018-06-24T02:49:04.434Z,5.70
2018-06-24T02:51:08.349Z,5.20
2018-06-24T02:53:13.809Z,7.90
2018-06-24T02:55:18.334Z,4.57
2018-06-24T02:57:21.921Z,7.50
2018-06-24T02:59:29.328Z,8.30
2018-06-24T03:01:32.809Z,6.30
2018-06-24T03:03:36.257Z,4.97
2018-06-24T03:05:43.431Z,6.97
2018-06-24T03:07:48.080Z,9.30
2018-06-24T03:09:52.299Z,6.20
2018-06-24T03:11:56.354Z,5.77
2018-06-24T03:14:00.283Z,5.70
2018-06-24T03:16:04.243Z,5.10
2018-06-24T03:18:08.104Z,4.17
2018-06-24T03:20:12.122Z,7.23
2018-06-24T03:22:18.654Z,5.20
2018-06-24T03:24:24.948Z,8.97
2018-06-24T03:26:28.998Z,4.53
2018-06-24T03:28:32.999Z,7.90
2018-06-24T03:30:37.342Z,8.90
2018-06-24T03:32:41.267Z,7.67
2018-06-24T03:34:46.166Z,2.93
2018-06-24T03:36:50.679Z,4.13
2018-06-24T03:38:54.431Z,6.67
2018-06-24T03:40:58.422Z,4.47
2018-06-24T03:43:02.775Z,4.17
2018-06-24T03:45:07.103Z,5.27
2018-06-24T03:47:11.027Z,5.47
2018-06-24T03:49:19.255Z,6.63
2018-06-24T03:51:25.631Z,5.23
2018-06-24T03:53:29.720Z,4.57
2018-06-24T03:55:34.230Z,6.37
2018-06-24T03:57:37.687Z,5.80
2018-06-24T03:59:41.556Z,5.23
2018-06-24T04:01:45.577Z,4.43
2018-06-24T04:03:49.476Z,6.57
2018-06-24T04:05:53.426Z,7.80
2018-06-24T04:07:58.829Z,7.77
2018-06-24T04:10:02.719Z,6.70
2018-06-24T04:12:06.595Z,7.37
2018-06-24T04:14:10.968Z,8.73
2018-06-24T04:16:14.919Z,5.00
2018-06-24T04:18:18.848Z,6.63
2018-06-24T04:20:23.242Z,6.83
2018-06-24T04:22:27.115Z,6.77
2018-06-24T04:24:31.225Z,10.00
2018-06-24T04:26:35.613Z,8.30
2018-06-24T04:28:40.065Z,9.30
2018-06-24T04:30:44.040Z,7.93
2018-06-24T04:32:48.671Z,8.23
2018-06-24T04:34:52.173Z,7.73
2018-06-24T04:36:56.157Z,6.93
2018-06-24T04:39:00.345Z,7.00
2018-06-24T04:41:04.383Z,6.83
2018-06-24T04:43:10.376Z,7.10
2018-06-24T04:45:18.719Z,9.70
2018-06-24T04:47:22.710Z,7.37
2018-06-24T04:49:26.795Z,9.50
2018-06-24T04:51:31.366Z,4.73
2018-06-24T04:53:34.995Z,7.73
2018-06-24T04:55:38.904Z,8.57
2018-06-24T04:57:43.724Z,6.73
2018-06-24T04:59:48.888Z,6.37
2018-06-24T05:01:53.126Z,8.13
2018-06-24T05:03:57.441Z,7.70
2018-06-24T05:06:01.053Z,6.43
2018-06-24T05:08:05.241Z,7.10
2018-06-24T05:10:15.583Z,6.43
2018-06-24T05:12:19.642Z,7.00
2018-06-24T05:14:23.584Z,8.40
2018-06-24T05:16:28.672Z,7.03
2018-06-24T05:18:32.804Z,7.90
2018-06-24T05:20:37.063Z,9.30
2018-06-24T05:22:41.334Z,7.70
2018-06-24T05:24:45.251Z,7.87
2018-06-24T05:26:50.186Z,5.53
2018-06-24T05:29:01.294Z,7.53
2018-06-24T05:31:06.596Z,6.70
2018-06-24T05:33:10.522Z,8.37
2018-06-24T05:35:15.993Z,6.27
2018-06-24T05:37:19.901Z,6.47
2018-06-24T05:39:23.909Z,8.30
2018-06-24T05:41:29.139Z,8.20
2018-06-24T05:43:33.095Z,8.83
2018-06-24T05:45:37.112Z,9.57
2018-06-24T05:47:41.091Z,6.37
2018-06-24T05:49:45.551Z,5.43
2018-06-24T05:51:50.422Z,7.07
2018-06-24T05:53:59.472Z,7.20
2018-06-24T05:56:03.469Z,6.67
2018-06-24T05:58:07.493Z,7.80
2018-06-24T06:00:14.509Z,6.70
2018-06-24T06:02:19.317Z,6.67
2018-06-24T06:04:23.932Z,6.93
2018-06-24T06:06:29.279Z,6.57
2018-06-24T06:08:33.897Z,7.30
2018-06-24T06:10:37.914Z,6.00
2018-06-24T06:12:41.815Z,5.07
2018-06-24T06:14:46.615Z,10.23
2018-06-24T06:16:50.507Z,8.57
2018-06-24T06:18:54.970Z,6.83
2018-06-24T06:20:59.718Z,6.90
2018-06-24T06:23:03.679Z,8.00
2018-06-24T06:25:09.177Z,6.10
2018-06-24T06:27:13.142Z,9.33
2018-06-24T06:29:17.850Z,7.03
2018-06-24T06:31:22.388Z,9.27
2018-06-24T06:33:26.367Z,7.07
2018-06-24T06:35:32.803Z,6.17
2018-06-24T06:37:36.422Z,6.80
2018-06-24T06:39:40.423Z,7.70
2018-06-24T06:41:45.461Z,10.33
2018-06-24T06:43:49.518Z,9.17
2018-06-24T06:45:54.291Z,7.50
2018-06-24T06:47:58.231Z,5.83
2018-06-24T06:50:02.540Z,5.47
2018-06-24T06:52:06.494Z,8.20
2018-06-24T06:54:10.598Z,3.43
2018-06-24T06:56:14.967Z,5.80
2018-06-24T06:58:21.227Z,6.10
2018-06-24T07:00:27.511Z,5.63
2018-06-24T07:02:36.635Z,9.93
2018-06-24T07:04:42.167Z,6.37
2018-06-24T07:06:46.536Z,5.90
2018-06-24T07:08:50.512Z,8.27
2018-06-24T07:12:52.207Z,7.60
2018-06-24T07:14:57.076Z,6.83
2018-06-24T07:17:01.575Z,6.43
2018-06-24T07:19:06.810Z,7.03
2018-06-24T07:21:12.093Z,6.30
2018-06-24T07:23:15.991Z,6.17
2018-06-24T07:25:22.107Z,5.87
2018-06-24T07:27:26.143Z,5.83
2018-06-24T07:29:30.175Z,7.00
2018-06-24T07:31:34.463Z,9.30
2018-06-24T07:33:40.444Z,8.17
2018-06-24T07:35:49.738Z,9.90
2018-06-24T07:38:11.418Z,7.57
2018-06-24T07:40:16.737Z,9.67
2018-06-24T07:42:22.227Z,8.77
2018-06-24T07:44:27.400Z,6.93
2018-06-24T07:46:31.390Z,11.43
2018-06-24T07:48:36.304Z,8.30
2018-06-24T07:50:43.791Z,11.43
2018-06-24T07:52:47.950Z,13.07
2018-06-24T07:54:54.026Z,9.40
2018-06-24T07:56:58.640Z,12.07
2018-06-24T07:59:02.552Z,8.13
2018-06-24T08:01:08.443Z,12.13
2018-06-24T08:03:12.986Z,11.00
2018-06-24T08:05:16.955Z,11.03
2018-06-24T08:07:21.681Z,10.37
2018-06-24T08:09:28.533Z,11.97
2018-06-24T08:11:33.406Z,12.87
2018-06-24T08:13:38.267Z,13.73
2018-06-24T08:15:44.666Z,13.37
2018-06-24T08:17:49.467Z,11.60
2018-06-24T08:19:54.298Z,16.83
2018-06-24T08:22:00.526Z,17.90
2018-06-24T08:24:06.358Z,15.80
2018-06-24T08:26:10.701Z,18.13
2018-06-24T08:28:14.603Z,14.03
2018-06-24T08:30:18.484Z,16.47
2018-06-24T08:32:26.414Z,17.97
2018-06-24T08:34:31.685Z,14.07
2018-06-24T08:36:35.802Z,12.50
2018-06-24T08:38:42.071Z,13.67
2018-06-24T08:40:51.104Z,14.07
2018-06-24T08:42:56.148Z,13.07
2018-06-24T08:45:00.764Z,14.40
2018-06-24T08:47:08.088Z,15.10
2018-06-24T08:49:14.955Z,14.27
2018-06-24T08:51:19.964Z,13.53
2018-06-24T08:53:27.241Z,17.27
2018-06-24T08:55:33.456Z,19.07
2018-06-24T08:57:37.550Z,12.57
2018-06-24T08:59:43.626Z,15.87
2018-06-24T09:01:49.106Z,13.53
2018-06-24T09:04:01.752Z,14.33
2018-06-24T09:06:12.765Z,15.87
2018-06-24T09:08:17.072Z,15.10
2018-06-24T09:10:21.739Z,12.50
2018-06-24T09:12:52.133Z,13.53
2018-06-24T09:14:58.604Z,18.30
2018-06-24T09:17:04.347Z,15.50
2018-06-24T09:21:57.341Z,12.83
2018-06-24T09:24:02.319Z,14.60
2018-06-24T09:26:15.823Z,17.47
2018-06-24T09:28:34.288Z,12.57
2018-06-24T09:31:03.870Z,14.13
2018-06-24T09:33:16.762Z,12.17
2018-06-24T09:35:24.322Z,14.87
2018-06-24T09:37:45.171Z,15.27
2018-06-24T09:40:06.526Z,15.57
2018-06-24T09:42:10.831Z,13.60
2018-06-24T09:44:15.704Z,15.10
2018-06-24T09:46:20.920Z,12.37
2018-06-24T09:48:27.332Z,10.93
2018-06-24T09:50:34.757Z,13.23
2018-06-24T09:52:40.171Z,16.33
2018-06-24T09:54:48.304Z,12.70
2018-06-24T09:56:54.303Z,10.17
2018-06-24T09:58:59.486Z,9.80
2018-06-24T10:01:04.495Z,9.67
2018-06-24T10:03:08.502Z,11.43
2018-06-24T10:05:14.643Z,12.23
2018-06-24T10:07:18.709Z,15.20
2018-06-24T10:09:22.603Z,12.30
2018-06-24T10:11:27.658Z,11.57
2018-06-24T10:13:31.662Z,11.40
2018-06-24T10:15:37.322Z,12.13
2018-06-24T10:17:41.972Z,12.57
2018-06-24T10:19:50.525Z,11.60
2018-06-24T10:21:56.260Z,13.17
2018-06-24T10:24:06.469Z,10.57
2018-06-24T10:26:11.632Z,12.73
2018-06-24T10:28:17.356Z,10.53
2018-06-24T10:30:25.446Z,12.90
2018-06-24T10:32:31.164Z,8.00
2018-06-24T10:34:36.394Z,11.83
2018-06-24T10:36:40.672Z,10.40
2018-06-24T10:38:46.850Z,11.37
2018-06-24T10:41:06.264Z,9.57
2018-06-24T10:43:10.198Z,11.23
2018-06-24T10:45:17.572Z,11.07
2018-06-24T10:47:26.387Z,12.70
2018-06-24T10:49:33.470Z,11.73
2018-06-24T10:51:40.587Z,12.13
2018-06-24T10:53:51.344Z,9.47
2018-06-24T10:56:06.011Z,7.93
2018-06-24T10:58:10.501Z,8.20
2018-06-24T11:00:20.797Z,11.63
2018-06-24T11:02:34.084Z,11.80
2018-06-24T11:04:44.020Z,10.77
2018-06-24T11:06:49.407Z,10.10
2018-06-24T11:08:54.482Z,10.87
2018-06-24T11:11:00.503Z,7.93
2018-06-24T11:13:05.401Z,11.00
2018-06-24T11:15:09.632Z,10.10
2018-06-24T11:17:17.659Z,7.53
2018-06-24T11:19:23.308Z,11.60
2018-06-24T11:21:32.036Z,8.40
2018-06-24T11:23:37.782Z,9.80
2018-06-24T11:25:42.327Z,9.53
2018-06-24T11:27:46.347Z,11.07
2018-06-24T11:29:51.781Z,8.07
2018-06-24T11:31:59.123Z,10.90
2018-06-24T11:34:05.940Z,5.47
2018-06-24T11:36:10.048Z,6.03
2018-06-24T11:38:14.147Z,9.03
2018-06-24T11:40:20.615Z,9.47
2018-06-24T11:42:27.264Z,6.73
2018-06-24T11:44:31.938Z,6.10
2018-06-24T11:46:37.221Z,7.13
2018-06-24T11:48:41.238Z,10.43
2018-06-24T11:50:45.178Z,8.33
2018-06-24T11:52:49.689Z,11.63
2018-06-24T11:54:54.058Z,10.70
2018-06-24T11:56:59.134Z,10.67
2018-06-24T11:59:05.137Z,9.07
2018-06-24T12:01:09.427Z,5.90
2018-06-24T12:03:14.196Z,6.47
2018-06-24T12:05:23.322Z,9.63
2018-06-24T12:07:28.991Z,8.90
2018-06-24T12:09:33.711Z,10.57
2018-06-24T12:11:41.425Z,7.97
2018-06-24T12:13:47.135Z,5.80
2018-06-24T12:15:52.290Z,5.67
2018-06-24T12:17:59.090Z,7.37
2018-06-24T12:20:04.508Z,6.43
2018-06-24T12:22:09.959Z,5.00
2018-06-24T12:24:18.302Z,5.93
2018-06-24T12:26:23.539Z,3.83
2018-06-24T12:28:29.407Z,3.63
2018-06-24T12:30:33.995Z,5.07
2018-06-24T12:32:40.161Z,4.80
2018-06-24T12:34:46.987Z,4.67
2018-06-24T12:36:59.542Z,5.50
2018-06-24T12:39:04.600Z,5.60
2018-06-24T12:41:10.965Z,4.40
2018-06-24T12:43:17.739Z,7.00
2018-06-24T12:45:22.336Z,4.77
2018-06-24T12:47:29.666Z,4.37
2018-06-24T12:49:36.230Z,3.93
2018-06-24T12:51:41.055Z,4.63
2018-06-24T12:53:46.435Z,4.00
2018-06-24T12:55:53.588Z,7.87
2018-06-24T12:57:59.398Z,5.23
2018-06-24T13:00:08.100Z,5.83
2018-06-24T13:02:15.895Z,5.20
2018-06-24T13:04:22.508Z,6.60
2018-06-24T13:06:29.696Z,6.20
2018-06-24T13:08:36.222Z,5.60
2018-06-24T13:10:40.968Z,6.07
2018-06-24T13:12:45.851Z,5.17
2018-06-24T13:14:54.716Z,7.33
2018-06-24T13:17:04.015Z,5.47
2018-06-24T13:19:08.727Z,7.43
2018-06-24T13:21:15.942Z,7.43
2018-06-24T13:23:24.398Z,7.27
2018-06-24T13:25:32.186Z,5.73
2018-06-24T13:27:36.551Z,5.35
2018-06-24T13:29:41.614Z,5.37
2018-06-24T13:31:46.077Z,5.97
2018-06-24T13:33:52.272Z,6.03
2018-06-24T13:35:58.404Z,5.42
2018-06-24T13:38:07.179Z,6.80
2018-06-24T13:40:12.795Z,6.37
2018-06-24T13:42:17.333Z,6.07
2018-06-24T13:44:29.104Z,5.40
2018-06-24T13:46:34.081Z,5.22
2018-06-24T13:48:39.057Z,7.47
2018-06-24T13:50:43.746Z,8.45
2018-06-24T13:52:49.284Z,5.92
2018-06-24T13:54:53.198Z,7.47
2018-06-24T13:56:57.793Z,7.43
2018-06-24T13:59:02.450Z,5.80
2018-06-24T14:01:08.779Z,5.10
2018-06-24T14:03:12.747Z,5.77
2018-06-24T14:05:21.624Z,5.30
2018-06-24T14:07:25.748Z,6.90
2018-06-24T14:09:30.628Z,5.07
2018-06-24T14:11:38.289Z,8.03
2018-06-24T14:13:42.334Z,4.07
2018-06-24T14:15:48.429Z,5.03
2018-06-24T14:17:53.803Z,5.73
2018-06-24T14:19:57.747Z,5.20
2018-06-24T14:22:01.619Z,4.90
2018-06-24T14:24:09.139Z,5.60
2018-06-24T14:26:15.851Z,7.10
2018-06-24T14:28:22.455Z,4.87
2018-06-24T14:30:30.691Z,5.77
2018-06-24T14:32:36.580Z,3.90
2018-06-24T14:34:41.739Z,7.17
2018-06-24T14:36:45.986Z,6.10
2018-06-24T14:38:51.391Z,3.33
2018-06-24T14:41:13.818Z,5.57
2018-06-24T14:43:22.891Z,4.97
2018-06-24T14:45:29.402Z,4.97
2018-06-24T14:47:34.430Z,4.43
2018-06-24T14:49:39.523Z,3.53
2018-06-24T14:51:44.523Z,5.07
2018-06-24T14:53:49.389Z,3.90
2018-06-24T14:55:56.064Z,5.07
2018-06-24T14:58:01.765Z,4.20
2018-06-24T15:00:09.239Z,6.60
2018-06-24T15:02:16.122Z,3.80
2018-06-24T15:04:21.281Z,3.97
2018-06-24T15:06:26.778Z,5.20
2018-06-24T15:08:30.675Z,4.17
2018-06-24T15:10:35.226Z,3.67
2018-06-24T15:12:39.858Z,3.97
2018-06-24T15:14:45.068Z,6.10
2018-06-24T15:16:50.001Z,6.03
2018-06-24T15:18:56.317Z,6.67
2018-06-24T15:21:00.533Z,5.77
2018-06-24T15:23:04.755Z,4.53
2018-06-24T15:25:09.714Z,4.90
2018-06-24T15:27:15.603Z,2.90
2018-06-24T15:29:20.231Z,3.27
2018-06-24T15:31:25.546Z,3.73
2018-06-24T15:33:33.830Z,2.37
2018-06-24T15:35:39.187Z,3.17
2018-06-24T15:37:44.755Z,3.63
2018-06-24T15:39:49.451Z,4.17
2018-06-24T15:41:55.453Z,4.47
2018-06-24T15:44:00.768Z,3.90
2018-06-24T15:46:09.163Z,4.73
2018-06-24T15:48:14.495Z,6.80
2018-06-24T15:50:25.404Z,4.53
2018-06-24T15:52:33.728Z,5.90
2018-06-24T15:54:39.587Z,5.73
2018-06-24T15:56:44.600Z,5.23
2018-06-24T15:58:48.906Z,3.17
2018-06-24T16:00:53.714Z,6.70
2018-06-24T16:03:00.192Z,3.40
2018-06-24T16:05:13.016Z,4.93
2018-06-24T16:07:19.224Z,4.97
2018-06-24T16:09:28.217Z,3.97
2018-06-24T16:11:36.574Z,4.37
2018-06-24T16:13:42.261Z,3.10
2018-06-24T16:15:48.275Z,3.33
2018-06-24T16:17:53.297Z,5.27
2018-06-24T16:19:58.369Z,3.57
2018-06-24T16:22:04.824Z,4.50
2018-06-24T16:24:10.675Z,4.60
2018-06-24T16:26:18.056Z,6.53
2018-06-24T16:28:23.782Z,3.30
2018-06-24T16:30:31.603Z,4.17
2018-06-24T16:32:36.309Z,4.10
2018-06-24T16:34:43.856Z,4.50
2018-06-24T16:36:49.703Z,2.60
2018-06-24T16:38:57.668Z,4.40
2018-06-24T16:41:04.136Z,5.30
2018-06-24T16:43:11.017Z,4.03
2018-06-24T16:45:17.584Z,3.73
2018-06-24T16:47:25.732Z,4.93
2018-06-24T16:49:32.867Z,4.40
2018-06-24T16:51:37.683Z,4.97
2018-06-24T16:53:46.454Z,4.10
2018-06-24T16:55:50.850Z,3.93
2018-06-24T16:57:55.349Z,3.90
2018-06-24T17:00:01.395Z,4.43
2018-06-24T17:02:08.494Z,3.30
2018-06-24T17:04:12.615Z,5.23
2018-06-24T17:06:17.935Z,4.27
2018-06-24T17:08:27.235Z,4.77
2018-06-24T17:10:31.459Z,4.27
2018-06-24T17:12:35.947Z,3.17
2018-06-24T17:14:40.730Z,7.33
2018-06-24T17:16:47.210Z,5.07
2018-06-24T17:18:54.544Z,8.20
2018-06-24T17:21:01.232Z,3.53
2018-06-24T17:23:06.614Z,5.27
2018-06-24T17:25:12.495Z,5.57
2018-06-24T17:27:19.212Z,5.50
2018-06-24T17:29:23.952Z,4.03
2018-06-24T17:31:29.182Z,7.63
2018-06-24T17:33:35.551Z,4.50
2018-06-24T17:35:42.748Z,4.97
2018-06-24T17:37:50.345Z,4.30
2018-06-24T17:39:57.076Z,4.53
2018-06-24T17:42:02.343Z,3.80
2018-06-24T17:44:11.427Z,4.27
2018-06-24T17:46:20.143Z,4.20
2018-06-24T17:48:26.745Z,4.00
2018-06-24T17:50:35.696Z,7.57
2018-06-24T17:52:40.643Z,3.37
2018-06-24T17:54:47.039Z,5.40
2018-06-24T17:56:52.834Z,3.60
2018-06-24T17:58:57.807Z,4.10
2018-06-24T18:01:04.095Z,3.90
2018-06-24T18:03:16.059Z,6.13
2018-06-24T18:05:21.078Z,3.40
2018-06-24T18:07:25.932Z,5.93
2018-06-24T18:09:30.784Z,4.37
2018-06-24T18:11:35.986Z,5.77
2018-06-24T18:13:40.950Z,3.67
2018-06-24T18:15:46.801Z,7.10
2018-06-24T18:17:50.764Z,4.13
2018-06-24T18:26:16.769Z,3.53
2018-06-24T18:28:22.369Z,4.03
2018-06-24T18:30:34.823Z,5.53
2018-06-24T18:32:38.879Z,4.50
2018-06-24T18:34:44.175Z,4.47
2018-06-24T18:36:52.796Z,4.83
2018-06-24T18:38:58.710Z,3.70
2018-06-24T18:41:06.443Z,5.77
2018-06-24T18:43:15.230Z,4.77
2018-06-24T18:45:22.539Z,3.40
2018-06-24T18:47:33.374Z,4.23
2018-06-24T18:49:40.485Z,4.80
2018-06-24T18:51:46.055Z,6.00
2018-06-24T18:53:50.468Z,3.67
2018-06-24T18:55:55.592Z,8.63
2018-06-24T18:58:02.335Z,5.47
2018-06-24T19:00:16.697Z,3.97
2018-06-24T19:02:25.825Z,4.10
2018-06-24T19:04:32.342Z,4.57
2018-06-24T19:06:37.315Z,6.43
2018-06-24T19:08:51.023Z,4.13
2018-06-24T19:10:57.882Z,5.30
2018-06-24T19:13:04.631Z,5.70
2018-06-24T19:15:11.956Z,3.93
2018-06-24T19:17:18.477Z,5.73
2018-06-24T19:19:28.315Z,4.77
2018-06-24T19:21:36.044Z,4.73
2018-06-24T19:23:40.096Z,4.23
2018-06-24T19:25:45.398Z,4.77
2018-06-24T19:27:50.375Z,4.77
2018-06-24T19:29:55.927Z,7.00
2018-06-24T19:32:01.483Z,6.27
2018-06-24T19:34:08.796Z,5.67
2018-06-24T19:36:14.526Z,3.90
2018-06-24T19:38:24.224Z,4.90
2018-06-24T19:40:31.384Z,4.10
2018-06-24T19:42:46.128Z,4.47
2018-06-24T19:48:05.938Z,4.13
2018-06-24T19:50:13.429Z,3.77
2018-06-24T19:52:20.627Z,5.47
2018-06-24T19:54:25.587Z,4.10
2018-06-24T19:56:32.855Z,3.67
2018-06-24T19:58:37.616Z,5.37
2018-06-24T20:00:42.255Z,3.63
2018-06-24T20:02:47.724Z,4.57
2018-06-24T20:04:51.307Z,4.63
2018-06-24T20:06:56.259Z,4.90
2018-06-24T20:09:12.547Z,4.93
2018-06-24T20:11:19.811Z,3.97
2018-06-24T20:13:27.882Z,4.30
2018-06-24T20:15:32.727Z,3.30
2018-06-24T20:17:41.455Z,3.60
2018-06-24T20:19:49.934Z,3.10
2018-06-24T20:21:55.939Z,5.40
2018-06-24T20:24:01.275Z,4.60
2018-06-24T20:26:05.263Z,5.23
2018-06-24T20:28:10.150Z,4.67
2018-06-24T20:30:17.266Z,3.70
2018-06-24T20:32:23.220Z,3.40
2018-06-24T20:34:30.701Z,2.83
2018-06-24T20:36:42.911Z,4.00
2018-06-24T20:38:48.169Z,3.53
2018-06-24T20:40:56.137Z,4.90
2018-06-24T20:43:01.363Z,4.20
2018-06-24T20:45:10.843Z,3.17
2018-06-24T20:47:17.893Z,2.73
2018-06-24T20:49:25.138Z,3.97
2018-06-24T20:51:33.050Z,3.07
2018-06-24T20:53:39.023Z,2.60
2018-06-24T20:55:45.003Z,2.10
2018-06-24T20:57:52.998Z,2.57
2018-06-24T20:59:58.467Z,2.63
2018-06-24T21:02:06.258Z,3.00
2018-06-24T21:04:12.810Z,2.63
2018-06-24T21:06:20.825Z,3.03
2018-06-24T21:08:28.728Z,3.60
2018-06-24T21:10:40.935Z,3.17
2018-06-24T21:12:49.589Z,4.27
2018-06-24T21:14:59.270Z,3.37
2018-06-24T21:17:08.759Z,2.67
2018-06-24T21:21:58.654Z,4.20
2018-06-24T21:24:07.590Z,3.50
2018-06-24T21:26:19.124Z,5.47
2018-06-24T21:28:28.093Z,6.57
2018-06-24T21:30:37.267Z,4.87
2018-06-24T21:32:43.789Z,2.63
2018-06-24T21:34:53.419Z,2.90
2018-06-24T21:37:00.271Z,5.43
2018-06-24T21:39:07.551Z,3.10
2018-06-24T21:41:12.768Z,4.03
2018-06-24T21:43:20.261Z,4.33
2018-06-24T21:45:28.816Z,3.73
2018-06-24T21:47:44.657Z,3.27
2018-06-24T21:49:57.773Z,4.07
2018-06-24T21:52:09.981Z,3.60
2018-06-24T21:54:17.936Z,5.17
2018-06-24T21:56:26.295Z,4.13
2018-06-24T21:58:48.293Z,4.37
2018-06-24T22:00:55.935Z,3.23
2018-06-24T22:03:02.484Z,3.80
2018-06-24T22:05:06.591Z,3.23
2018-06-24T22:07:17.155Z,4.40
2018-06-24T22:09:21.389Z,5.13
2018-06-24T22:11:37.703Z,6.03
2018-06-24T22:13:42.755Z,5.20
2018-06-24T22:15:48.141Z,4.30
2018-06-24T22:17:56.604Z,3.93
2018-06-24T22:20:01.560Z,3.97
2018-06-24T22:22:05.773Z,3.77
2018-06-24T22:24:10.799Z,4.20
2018-06-24T22:26:17.199Z,3.57
2018-06-24T22:28:25.185Z,4.13
2018-06-24T22:30:30.383Z,5.73
2018-06-24T22:32:36.430Z,5.17
2018-06-24T22:34:41.533Z,6.17
2018-06-24T22:36:45.602Z,3.97
2018-06-24T22:38:53.011Z,5.47
2018-06-24T22:43:08.092Z,4.47
2018-06-24T22:45:14.333Z,5.90
2018-06-24T22:47:18.599Z,5.60
2018-06-24T22:49:22.163Z,5.10
2018-06-24T22:51:26.226Z,5.67
2018-06-24T22:53:32.765Z,5.10
2018-06-24T22:55:36.812Z,5.70
2018-06-24T22:57:41.200Z,5.80
2018-06-24T23:00:23.400Z,6.10
2018-06-24T23:02:27.605Z,5.33
2018-06-24T23:04:34.054Z,5.70
2018-06-24T23:06:39.437Z,7.30
2018-06-24T23:08:43.753Z,4.27
2018-06-24T23:10:54.697Z,4.53
2018-06-24T23:12:59.792Z,4.60
2018-06-24T23:15:05.515Z,4.77
2018-06-24T23:17:11.711Z,4.10
2018-06-24T23:19:19.703Z,4.67
2018-06-24T23:21:26.762Z,3.90
2018-06-24T23:23:32.455Z,3.50
2018-06-24T23:25:38.271Z,3.70
2018-06-24T23:27:42.331Z,4.20
2018-06-24T23:29:46.749Z,3.47
2018-06-24T23:31:52.019Z,3.90
2018-06-24T23:33:56.927Z,3.50
2018-06-24T23:36:02.665Z,2.90
2018-06-24T23:38:07.521Z,3.53
2018-06-24T23:40:11.560Z,3.37
2018-06-24T23:42:15.522Z,2.77
2018-06-24T23:44:19.877Z,3.40
2018-06-24T23:46:24.252Z,4.13
2018-06-24T23:48:33.000Z,3.30
2018-06-24T23:50:38.029Z,2.97
2018-06-24T23:52:43.602Z,3.33
2018-06-24T23:54:49.013Z,5.67
2018-06-24T23:56:55.603Z,3.33
2018-06-24T23:58:59.567Z,3.67
